createdAt,value
2019-02-11T00:03:17.749Z,61.40
2019-02-11T00:08:15.204Z,60.97
2019-02-11T00:13:12.169Z,61.48
2019-02-11T00:18:09.129Z,61.88
2019-02-11T00:23:06.035Z,61.62
2019-02-11T00:28:02.991Z,62.22
2019-02-11T00:32:59.937Z,62.46
2019-02-11T00:37:57.055Z,61.80
2019-02-11T00:42:53.968Z,62.40
2019-02-11T00:47:50.940Z,61.86
2019-02-11T00:52:47.906Z,61.74
2019-02-11T00:57:44.833Z,61.57
2019-02-11T01:02:41.755Z,61.76
2019-02-11T01:07:38.717Z,62.34
2019-02-11T01:12:35.716Z,62.09
2019-02-11T01:17:32.664Z,61.68
2019-02-11T01:22:29.568Z,61.74
2019-02-11T01:27:26.525Z,61.90
2019-02-11T01:32:23.428Z,61.62
2019-02-11T01:37:20.367Z,61.64
2019-02-11T01:42:17.288Z,61.86
2019-02-11T01:47:14.264Z,61.44
2019-02-11T01:52:11.168Z,61.82
2019-02-11T01:57:09.055Z,61.36
2019-02-11T02:02:05.972Z,61.59
2019-02-11T02:07:03.034Z,61.52
2019-02-11T02:11:59.958Z,61.85
2019-02-11T02:16:56.891Z,61.46
2019-02-11T02:21:53.840Z,61.42
2019-02-11T02:26:50.797Z,61.20
2019-02-11T02:31:47.698Z,61.22
2019-02-11T02:36:44.654Z,60.93
2019-02-11T02:41:41.591Z,60.37
2019-02-11T02:46:38.538Z,60.29
2019-02-11T02:51:35.458Z,60.59
2019-02-11T02:56:32.415Z,61.20
2019-02-11T03:01:29.390Z,61.32
2019-02-11T03:06:26.351Z,61.46
2019-02-11T03:11:23.247Z,61.63
2019-02-11T03:16:20.204Z,60.43
2019-02-11T03:21:17.162Z,60.72
2019-02-11T03:26:14.112Z,60.48
2019-02-11T03:31:11.100Z,60.30
2019-02-11T03:36:08.041Z,59.67
2019-02-11T03:41:04.940Z,60.25
2019-02-11T03:46:01.881Z,61.09
2019-02-11T03:50:58.838Z,60.69
2019-02-11T03:55:55.769Z,61.18
2019-02-11T04:00:52.696Z,60.88
2019-02-11T04:05:50.580Z,60.57
2019-02-11T04:10:47.520Z,59.76
2019-02-11T04:15:44.484Z,59.66
2019-02-11T04:20:41.399Z,59.13
2019-02-11T04:25:38.358Z,59.75
2019-02-11T04:30:35.256Z,59.24
2019-02-11T04:35:32.412Z,59.76
2019-02-11T04:40:29.341Z,59.33
2019-02-11T04:45:26.299Z,59.97
2019-02-11T04:50:23.209Z,59.96
2019-02-11T04:55:20.138Z,60.10
2019-02-11T05:00:17.056Z,60.59
2019-02-11T05:05:14.213Z,60.47
2019-02-11T05:10:15.448Z,60.18
2019-02-11T05:15:12.406Z,59.76
2019-02-11T05:20:11.132Z,59.42
2019-02-11T05:25:08.770Z,59.91
2019-02-11T05:30:09.321Z,59.36
2019-02-11T05:35:07.364Z,58.74
2019-02-11T05:40:10.876Z,58.93
2019-02-11T05:45:08.019Z,58.85
2019-02-11T05:50:09.376Z,58.89
2019-02-11T05:55:07.088Z,58.84
2019-02-11T06:00:09.365Z,59.69
2019-02-11T06:05:06.966Z,59.07
2019-02-11T06:10:08.220Z,59.74
2019-02-11T06:15:06.973Z,60.36
2019-02-11T06:20:07.638Z,60.24
2019-02-11T06:25:06.673Z,61.13
2019-02-11T06:30:12.324Z,61.18
2019-02-11T06:35:09.264Z,60.75
2019-02-11T06:40:09.111Z,61.13
2019-02-11T06:45:13.291Z,60.67
2019-02-11T06:50:13.682Z,60.52
2019-02-11T06:55:11.347Z,60.61
2019-02-11T07:00:14.281Z,60.42
2019-02-11T07:05:11.294Z,60.35
2019-02-11T07:10:10.640Z,60.29
2019-02-11T07:15:21.195Z,59.77
2019-02-11T07:20:11.035Z,60.88
2019-02-11T07:25:08.429Z,59.69
2019-02-11T07:30:09.841Z,59.74
2019-02-11T07:35:06.736Z,59.91
2019-02-11T07:40:08.508Z,60.18
2019-02-11T07:45:10.650Z,60.41
2019-02-11T07:50:07.656Z,59.71
2019-02-11T07:55:26.173Z,59.87
2019-02-11T08:00:23.470Z,58.96
2019-02-11T08:05:20.529Z,59.72
2019-02-11T08:10:17.474Z,60.01
2019-02-11T08:15:15.345Z,59.99
2019-02-11T08:20:12.367Z,60.25
2019-02-11T08:25:09.313Z,59.10
2019-02-11T08:30:09.257Z,59.45
2019-02-11T08:35:07.383Z,59.12
2019-02-11T08:40:07.536Z,58.90
2019-02-11T08:45:09.049Z,59.85
2019-02-11T08:50:07.865Z,59.78
2019-02-11T08:55:06.940Z,59.63
2019-02-11T09:00:07.388Z,59.95
2019-02-11T09:05:06.342Z,60.17
2019-02-11T09:10:07.813Z,60.19
2019-02-11T09:15:09.032Z,59.71
2019-02-11T09:20:09.430Z,60.05
2019-02-11T09:25:09.106Z,59.63
2019-02-11T09:30:13.766Z,59.61
2019-02-11T09:35:10.782Z,58.80
2019-02-11T09:40:14.672Z,58.97
2019-02-11T09:45:19.199Z,58.65
2019-02-11T09:50:39.389Z,59.28
2019-02-11T09:55:36.300Z,59.24
2019-02-11T10:00:33.346Z,59.00
2019-02-11T10:05:30.249Z,59.44
2019-02-11T10:10:27.194Z,59.63
2019-02-11T10:15:24.114Z,59.64
2019-02-11T10:20:22.180Z,59.97
2019-02-11T10:25:29.107Z,60.60
2019-02-11T10:30:26.145Z,60.31
2019-02-11T10:35:23.098Z,60.46
2019-02-11T10:40:20.001Z,59.80
2019-02-11T10:45:17.093Z,59.68
2019-02-11T10:50:16.722Z,59.56
2019-02-11T10:55:16.696Z,58.82
2019-02-11T11:00:21.865Z,58.92
2019-02-11T11:05:19.071Z,58.33
2019-02-11T11:10:27.387Z,58.25
2019-02-11T11:15:24.577Z,57.75
2019-02-11T11:20:23.120Z,57.70
2019-02-11T11:25:20.216Z,57.45
2019-02-11T11:30:18.721Z,57.50
2019-02-11T11:35:16.921Z,57.19
2019-02-11T11:40:20.639Z,57.56
2019-02-11T11:45:20.638Z,57.39
2019-02-11T11:50:17.764Z,57.30
2019-02-11T11:55:21.632Z,56.92
2019-02-11T12:00:25.583Z,56.84
2019-02-11T12:05:22.614Z,57.26
2019-02-11T12:10:19.679Z,56.20
2019-02-11T12:15:20.305Z,56.02
2019-02-11T12:20:18.399Z,56.26
2019-02-11T12:25:17.568Z,56.42
2019-02-11T12:30:21.376Z,54.92
2019-02-11T12:35:18.342Z,54.89
2019-02-11T12:40:15.397Z,55.61
2019-02-11T12:45:17.944Z,55.68
2019-02-11T12:50:17.159Z,56.64
2019-02-11T12:55:17.253Z,56.56
2019-02-11T13:00:23.174Z,56.81
2019-02-11T13:05:22.802Z,56.62
2019-02-11T13:10:19.995Z,56.70
2019-02-11T13:15:53.295Z,56.36
2019-02-11T13:20:19.890Z,56.80
2019-02-11T13:25:17.743Z,57.34
2019-02-11T13:30:18.850Z,57.42
2019-02-11T13:35:16.174Z,58.09
2019-02-11T13:40:13.588Z,58.00
2019-02-11T13:45:19.246Z,58.32
2019-02-11T13:50:26.412Z,58.46
2019-02-11T13:55:23.419Z,58.43
2019-02-11T14:00:26.581Z,58.24
2019-02-11T14:05:24.741Z,58.20
2019-02-11T14:10:21.824Z,58.26
2019-02-11T14:15:20.827Z,59.61
2019-02-11T14:20:24.244Z,59.60
2019-02-11T14:25:39.091Z,59.86
2019-02-11T14:30:21.573Z,59.35
2019-02-11T14:35:22.421Z,59.22
2019-02-11T14:40:20.978Z,60.07
2019-02-11T14:45:20.988Z,60.32
2019-02-11T14:50:19.347Z,60.56
2019-02-11T14:55:16.256Z,60.09
2019-02-11T15:00:18.873Z,59.95
2019-02-11T15:05:16.818Z,60.72
2019-02-11T15:10:14.109Z,60.36
2019-02-11T15:15:12.443Z,60.70
2019-02-11T15:20:11.782Z,60.52
2019-02-11T15:25:12.022Z,60.57
2019-02-11T15:30:12.571Z,59.45
2019-02-11T15:35:09.675Z,58.60
2019-02-11T15:40:16.941Z,58.06
2019-02-11T15:45:14.361Z,58.57
2019-02-11T15:50:15.081Z,57.71
2019-02-11T15:55:18.500Z,57.24
2019-02-11T16:00:20.793Z,57.64
2019-02-11T16:05:18.324Z,57.34
2019-02-11T16:10:25.401Z,57.21
2019-02-11T16:15:22.521Z,57.18
2019-02-11T16:20:20.168Z,57.01
2019-02-11T16:25:17.428Z,57.16
2019-02-11T16:30:18.031Z,56.97
2019-02-11T16:35:18.065Z,56.97
2019-02-11T16:40:27.951Z,57.54
2019-02-11T16:45:24.860Z,57.33
2019-02-11T16:50:21.833Z,57.99
2019-02-11T16:55:20.720Z,56.83
2019-02-11T17:00:19.104Z,56.75
2019-02-11T17:05:16.682Z,56.10
2019-02-11T17:10:14.711Z,56.58
2019-02-11T17:15:18.323Z,56.46
2019-02-11T17:20:15.833Z,56.15
2019-02-11T17:25:14.772Z,55.69
2019-02-11T17:30:22.538Z,55.63
2019-02-11T17:35:19.547Z,56.24
2019-02-11T17:40:16.655Z,56.12
2019-02-11T17:45:20.757Z,56.51
2019-02-11T17:50:18.100Z,56.31
2019-02-11T17:55:15.422Z,56.42
2019-02-11T18:00:34.506Z,56.33
2019-02-11T18:05:31.416Z,56.77
2019-02-11T18:10:28.621Z,56.40
2019-02-11T18:15:26.033Z,56.40
2019-02-11T18:20:22.985Z,56.00
2019-02-11T18:25:20.285Z,56.42
2019-02-11T18:30:17.805Z,56.17
2019-02-11T18:35:18.411Z,55.86
2019-02-11T18:40:15.886Z,56.07
2019-02-11T18:45:15.075Z,56.45
2019-02-11T18:50:14.786Z,57.63
2019-02-11T18:55:20.211Z,57.49
2019-02-11T19:00:18.779Z,57.97
2019-02-11T19:05:18.543Z,57.64
2019-02-11T19:10:17.587Z,57.33
2019-02-11T19:15:17.225Z,57.58
2019-02-11T19:20:16.031Z,57.80
2019-02-11T19:25:13.216Z,57.98
2019-02-11T19:30:23.221Z,58.17
2019-02-11T19:35:20.464Z,57.88
2019-02-11T19:40:19.093Z,57.98
2019-02-11T19:45:22.682Z,57.75
2019-02-11T19:50:19.925Z,58.01
2019-02-11T19:55:18.396Z,58.18
2019-02-11T20:00:19.724Z,58.56
2019-02-11T20:05:17.292Z,58.33
2019-02-11T20:10:22.595Z,58.32
2019-02-11T20:15:27.133Z,57.97
2019-02-11T20:20:24.067Z,57.77
2019-02-11T20:25:23.692Z,58.09
2019-02-11T20:30:24.865Z,57.77
2019-02-11T20:35:22.093Z,57.60
2019-02-11T20:40:28.279Z,57.98
2019-02-11T20:45:27.421Z,58.87
2019-02-11T20:50:26.304Z,58.84
2019-02-11T20:55:23.568Z,59.06
2019-02-11T21:00:23.450Z,59.07
2019-02-11T21:05:21.438Z,59.05
2019-02-11T21:10:21.089Z,59.11
2019-02-11T21:15:17.983Z,58.86
2019-02-11T21:20:19.889Z,59.00
2019-02-11T21:25:16.870Z,58.79
2019-02-11T21:30:14.650Z,58.76
2019-02-11T21:35:12.783Z,58.85
2019-02-11T21:40:09.857Z,58.22
2019-02-11T21:45:10.169Z,58.46
2019-02-11T21:50:12.040Z,58.36
2019-02-11T21:55:12.366Z,58.35
2019-02-11T22:00:18.321Z,57.82
2019-02-11T22:05:15.518Z,58.23
2019-02-11T22:10:23.351Z,58.36
2019-02-11T22:15:20.305Z,58.02
2019-02-11T22:20:19.252Z,58.18
2019-02-11T22:25:16.162Z,58.39
2019-02-11T22:30:23.966Z,58.20
2019-02-11T22:35:20.857Z,58.23
2019-02-11T22:40:17.910Z,57.57
2019-02-11T22:45:24.494Z,57.50
2019-02-11T22:50:21.413Z,56.82
2019-02-11T22:55:18.404Z,56.69
2019-02-11T23:00:45.758Z,56.21
2019-02-11T23:05:42.661Z,56.18
2019-02-11T23:10:39.653Z,56.55
2019-02-11T23:15:36.833Z,55.90
2019-02-11T23:20:33.968Z,56.48
2019-02-11T23:25:30.881Z,55.97
2019-02-11T23:30:27.971Z,56.03
2019-02-11T23:35:24.885Z,55.33
2019-02-11T23:40:22.774Z,55.72
2019-02-11T23:45:19.673Z,54.91
2019-02-11T23:50:16.642Z,55.56
2019-02-11T23:55:13.539Z,56.62
